Time;durP1;ratioP1;P1;durP2;ratioP2;P2;SDS_P1;SDS_P2;PMS_P1;PMS_P2;Temp;Humidity;BMP_temperature;BMP_pressure;BME280_temperature;BME280_humidity;BME280_pressure;Samples;Min_cycle;Max_cycle;Signal;HPM_P1;HPM_P2
2023/01/11 00:01:38;;;;;;;1.43;0.87;;;;;;;6.66;100.00;99633.81;5087793;28;20503;-72
2023/01/11 00:04:05;;;;;;;5.20;1.60;;;;;;;6.65;100.00;99646.25;5090810;28;20487;-72
2023/01/11 00:06:31;;;;;;;1.50;1.40;;;;;;;6.67;100.00;99633.69;5083535;28;20475;-72
2023/01/11 00:08:59;;;;;;;1.40;1.00;;;;;;;6.67;100.00;99620.41;5099804;28;20465;-73
2023/01/11 00:11:25;;;;;;;1.27;1.17;;;;;;;6.77;100.00;99642.56;5089018;28;20470;-73
2023/01/11 00:13:53;;;;;;;1.03;0.93;;;;;;;6.87;100.00;99629.28;5101287;28;20943;-71
2023/01/11 00:16:20;;;;;;;2.10;1.30;;;;;;;6.85;100.00;99630.41;5100879;28;20467;-73
2023/01/11 00:18:46;;;;;;;2.03;1.00;;;;;;;6.95;100.00;99620.69;5090348;28;20494;-70
2023/01/11 00:21:13;;;;;;;4.03;1.70;;;;;;;6.93;100.00;99630.59;5099268;28;20463;-71
2023/01/11 00:23:40;;;;;;;1.60;1.50;;;;;;;7.00;100.00;99622.94;5083588;28;20502;-71
2023/01/11 00:26:09;;;;;;;2.80;1.50;;;;;;;6.95;100.00;99610.06;5092076;28;20482;-70
2023/01/11 00:28:36;;;;;;;2.17;1.27;;;;;;;6.89;100.00;99603.47;5084844;28;20512;-71
2023/01/11 00:31:04;;;;;;;1.50;1.07;;;;;;;7.06;100.00;99586.03;5100541;28;20478;-70
2023/01/11 00:33:31;;;;;;;2.90;1.23;;;;;;;7.08;100.00;99599.19;5096925;28;20494;-70
2023/01/11 00:35:58;;;;;;;1.37;1.13;;;;;;;7.11;100.00;99604.22;5099689;28;20509;-70
2023/01/11 00:49:20;;;;;;;3.83;1.20;;;;;;;7.38;100.00;99565.53;5085981;28;20465;-71
2023/01/11 00:51:46;;;;;;;1.73;0.83;;;;;;;7.48;100.00;99553.09;5091494;28;21043;-70
2023/01/11 00:54:13;;;;;;;1.63;1.30;;;;;;;7.50;100.00;99572.44;5100313;28;20468;-70
2023/01/11 00:56:40;;;;;;;2.57;1.53;;;;;;;7.43;100.00;99560.66;5098024;28;20510;-69
2023/01/11 00:59:07;;;;;;;2.80;1.00;;;;;;;7.54;100.00;99573.84;5101543;28;20451;-71
2023/01/11 01:01:35;;;;;;;1.23;0.70;;;;;;;7.55;100.00;99554.22;5089130;28;20480;-71
2023/01/11 01:04:02;;;;;;;1.10;1.00;;;;;;;7.51;100.00;99569.63;5084414;28;20940;-71
2023/01/11 01:06:29;;;;;;;1.23;1.00;;;;;;;7.73;100.00;99565.03;5090957;28;20468;-72
2023/01/11 01:08:56;;;;;;;2.00;1.20;;;;;;;7.69;100.00;99579.59;5097305;28;20435;-73
2023/01/11 01:11:23;;;;;;;1.80;1.17;;;;;;;7.63;100.00;99574.84;5098555;28;20880;-72
2023/01/11 01:16:36;;;;;;;2.20;0.93;;;;;;;7.67;100.00;99573.56;5084297;28;20575;-73
2023/01/11 01:19:03;;;;;;;1.47;1.10;;;;;;;7.77;100.00;99576.25;5092529;28;21023;-73
2023/01/11 01:21:30;;;;;;;1.50;0.90;;;;;;;7.88;100.00;99568.97;5090095;28;20503;-71
2023/01/11 01:23:57;;;;;;;1.63;0.90;;;;;;;7.96;100.00;99565.59;5092594;28;20472;-73
2023/01/11 01:26:24;;;;;;;1.87;0.70;;;;;;;7.84;100.00;99569.38;5095820;28;20479;-72
2023/01/11 01:28:51;;;;;;;1.00;0.90;;;;;;;7.86;100.00;99564.75;5093989;28;20517;-73
2023/01/11 01:31:17;;;;;;;2.90;1.00;;;;;;;7.92;100.00;99567.69;5100260;28;20573;-72
2023/01/11 01:33:45;;;;;;;1.87;1.03;;;;;;;7.85;100.00;99560.44;5086910;28;20491;-73
2023/01/11 01:36:12;;;;;;;1.73;1.10;;;;;;;7.96;100.00;99567.44;5085089;28;20488;-73
2023/01/11 01:38:39;;;;;;;3.27;1.03;;;;;;;7.98;100.00;99552.97;5088231;28;20511;-73
2023/01/11 01:41:06;;;;;;;0.93;0.80;;;;;;;7.91;100.00;99563.34;5080382;28;20472;-75
2023/01/11 01:43:47;;;;;;;3.80;0.93;;;;;;;8.09;100.00;99552.84;5086744;28;20784;-75
2023/01/11 01:46:14;;;;;;;0.93;0.83;;;;;;;8.06;100.00;99542.47;5103554;28;20513;-70
2023/01/11 01:48:42;;;;;;;1.63;1.00;;;;;;;8.16;100.00;99552.25;5089551;28;20489;-72
2023/01/11 01:51:13;;;;;;;0.90;0.60;;;;;;;8.12;100.00;99535.72;5091837;28;20483;-76
2023/01/11 01:53:42;;;;;;;1.00;0.73;;;;;;;8.32;100.00;99544.53;5093459;28;20455;-72
2023/01/11 01:56:11;;;;;;;2.00;1.00;;;;;;;8.19;100.00;99530.69;5103064;28;20476;-73
2023/01/11 01:58:42;;;;;;;2.20;0.80;;;;;;;8.24;100.00;99547.91;5090963;28;20445;-75
2023/01/11 02:03:49;;;;;;;2.77;1.07;;;;;;;8.33;100.00;99535.53;5086333;28;20440;-72
2023/01/11 02:06:18;;;;;;;2.80;0.77;;;;;;;8.35;100.00;99540.72;5094349;28;20530;-72
2023/01/11 02:08:48;;;;;;;0.70;0.67;;;;;;;8.44;100.00;99539.94;5097346;28;20463;-71
2023/01/11 02:14:13;;;;;;;0.80;0.70;;;;;;;8.41;100.00;99521.53;5091206;27;20528;-71
2023/01/11 02:16:39;;;;;;;1.20;0.90;;;;;;;8.47;100.00;99527.16;5059028;28;20572;-71
2023/01/11 02:19:08;;;;;;;1.30;0.60;;;;;;;8.44;100.00;99521.28;5073202;28;20470;-74
2023/01/11 02:21:47;;;;;;;0.60;0.60;;;;;;;8.52;100.00;99513.38;5070925;28;20480;-71
2023/01/11 02:24:40;;;;;;;0.60;0.60;;;;;;;8.54;100.00;99491.91;5058423;28;20426;-74
2023/01/11 02:27:34;;;;;;;1.00;0.67;;;;;;;8.56;100.00;99512.13;5070316;28;20481;-72
2023/01/11 02:30:15;;;;;;;0.70;0.70;;;;;;;8.55;100.00;99505.09;5066257;28;21024;-70
2023/01/11 02:32:50;;;;;;;0.90;0.70;;;;;;;8.60;100.00;99508.16;5070614;28;20495;-70
2023/01/11 02:35:21;;;;;;;1.77;0.60;;;;;;;8.57;100.00;99502.28;5063956;28;20462;-71
2023/01/11 02:37:54;;;;;;;0.90;0.53;;;;;;;8.37;100.00;99489.03;5058339;28;20429;-72
2023/01/11 02:40:26;;;;;;;2.40;0.70;;;;;;;8.37;100.00;99481.03;5052435;28;20454;-72
2023/01/11 02:45:47;;;;;;;0.90;0.83;;;;;;;8.29;100.00;99489.72;5035238;28;20548;-74
2023/01/11 02:48:18;;;;;;;1.43;0.77;;;;;;;8.26;100.00;99497.16;5056393;28;20457;-71
2023/01/11 02:50:49;;;;;;;1.60;0.83;;;;;;;8.28;100.00;99489.88;5054756;28;20476;-72
2023/01/11 02:53:19;;;;;;;1.00;0.70;;;;;;;8.34;100.00;99496.47;5057392;28;20535;-71
2023/01/11 02:55:50;;;;;;;0.70;0.70;;;;;;;8.41;100.00;99511.69;5044578;28;20489;-71
2023/01/11 02:58:18;;;;;;;0.77;0.70;;;;;;;8.41;100.00;99482.41;5057102;28;20448;-72
2023/01/11 03:00:47;;;;;;;0.60;0.60;;;;;;;8.55;100.00;99489.13;5057031;28;20474;-72
2023/01/11 03:03:15;;;;;;;1.80;0.70;;;;;;;8.58;100.00;99480.00;5055099;28;20503;-71
2023/01/11 03:05:45;;;;;;;1.30;0.70;;;;;;;8.74;100.00;99480.19;5036500;28;20498;-71
2023/01/11 03:08:25;;;;;;;0.97;0.60;;;;;;;8.66;100.00;99482.75;5040052;28;20479;-70
2023/01/11 03:11:00;;;;;;;0.77;0.60;;;;;;;8.78;100.00;99478.06;5055961;28;20572;-73
2023/01/11 03:13:36;;;;;;;1.03;0.57;;;;;;;8.92;100.00;99471.41;5056811;28;20520;-70
2023/01/11 03:16:21;;;;;;;2.20;0.80;;;;;;;8.84;100.00;99489.00;5053292;28;20568;-70
2023/01/11 03:18:52;;;;;;;0.87;0.87;;;;;;;8.66;100.00;99464.09;5049363;28;20961;-73
2023/01/11 03:21:28;;;;;;;0.70;0.50;;;;;;;8.60;100.00;99462.03;5055022;28;20593;-70
2023/01/11 03:24:04;;;;;;;1.90;1.03;;;;;;;8.69;100.00;99476.31;5053167;28;20648;-70
2023/01/11 03:26:37;;;;;;;0.70;0.63;;;;;;;8.60;100.00;99478.03;5040648;28;20543;-70
2023/01/11 03:29:11;;;;;;;0.50;0.50;;;;;;;8.52;100.00;99467.25;5044068;28;20431;-70
2023/01/11 03:31:40;;;;;;;1.10;0.50;;;;;;;8.52;100.00;99480.56;5020598;28;20484;-71
2023/01/11 03:34:13;;;;;;;1.17;0.67;;;;;;;8.55;100.00;99461.66;5022592;28;20585;-70
2023/01/11 03:36:43;;;;;;;1.43;0.90;;;;;;;8.46;100.00;99461.53;5010644;28;20633;-73
2023/01/11 03:39:13;;;;;;;0.73;0.73;;;;;;;8.58;100.00;99440.88;5025474;28;20463;-70
2023/01/11 03:41:41;;;;;;;2.77;0.80;;;;;;;8.57;100.00;99455.16;5043401;28;20883;-70
2023/01/11 03:44:10;;;;;;;0.67;0.60;;;;;;;8.71;100.00;99461.00;5030461;28;20479;-71
2023/01/11 03:46:40;;;;;;;3.63;0.60;;;;;;;8.73;100.00;99451.03;5039733;28;20995;-71
2023/01/11 03:49:10;;;;;;;0.77;0.77;;;;;;;8.77;100.00;99447.09;5027306;28;20446;-70
2023/01/11 03:51:41;;;;;;;0.80;0.63;;;;;;;8.86;100.00;99447.03;5030227;28;20505;-71
2023/01/11 03:54:11;;;;;;;1.70;0.67;;;;;;;8.97;100.00;99437.13;5039798;28;20578;-71
2023/01/11 03:56:42;;;;;;;0.60;0.60;;;;;;;8.94;100.00;99446.28;5022910;28;21037;-71
2023/01/11 03:59:09;;;;;;;1.83;1.00;;;;;;;9.04;100.00;99440.88;5025546;28;20443;-70
2023/01/11 04:01:39;;;;;;;0.57;0.43;;;;;;;8.96;100.00;99438.16;5023491;28;20478;-72
2023/01/11 04:04:05;;;;;;;0.60;0.57;;;;;;;9.20;100.00;99445.53;5025349;28;20459;-71
2023/01/11 04:06:34;;;;;;;1.00;0.43;;;;;;;9.09;100.00;99438.59;5022752;28;20502;-71
2023/01/11 04:09:00;;;;;;;0.60;0.57;;;;;;;9.08;100.00;99438.75;5030237;28;20796;-70
2023/01/11 04:11:27;;;;;;;0.70;0.63;;;;;;;9.12;100.00;99448.16;5022360;28;20475;-72
2023/01/11 04:13:54;;;;;;;1.07;0.83;;;;;;;9.04;100.00;99446.22;5037125;28;20510;-72
2023/01/11 04:16:20;;;;;;;1.03;0.90;;;;;;;9.10;100.00;99445.63;5035314;28;20470;-70
2023/01/11 04:18:48;;;;;;;1.00;0.90;;;;;;;9.27;100.00;99443.97;5037497;28;20447;-71
2023/01/11 04:21:15;;;;;;;0.47;0.47;;;;;;;9.07;100.00;99445.91;5034470;28;20497;-71
2023/01/11 04:23:42;;;;;;;0.80;0.80;;;;;;;8.92;100.00;99442.09;5025789;28;20447;-72
2023/01/11 04:26:08;;;;;;;0.97;0.70;;;;;;;9.04;100.00;99443.53;5032981;28;20504;-71
2023/01/11 04:28:35;;;;;;;1.43;0.80;;;;;;;9.01;100.00;99451.88;5036144;28;20466;-71
2023/01/11 04:31:02;;;;;;;1.67;0.50;;;;;;;8.96;100.00;99438.97;5040131;28;20513;-72
2023/01/11 04:33:28;;;;;;;0.63;0.63;;;;;;;8.88;100.00;99438.06;5041519;28;20481;-72
2023/01/11 04:35:56;;;;;;;0.50;0.50;;;;;;;8.82;100.00;99421.66;5040348;28;20510;-72
2023/01/11 04:38:25;;;;;;;0.60;0.50;;;;;;;8.89;100.00;99421.91;5029725;28;20439;-72
2023/01/11 04:42:17;;;;;;;0.70;0.60;;;;;;;8.82;100.00;99431.50;5032607;28;20471;-73
2023/01/11 04:43:38;;;;;;;0.70;0.60;;;;;;;8.88;100.00;99425.56;5027057;28;20454;-76
2023/01/11 04:46:05;;;;;;;1.97;1.00;;;;;;;8.89;100.00;99419.25;5041736;28;20474;-73
2023/01/11 04:48:32;;;;;;;1.33;0.70;;;;;;;8.99;100.00;99432.50;5036795;28;20209;-74
2023/01/11 04:51:00;;;;;;;1.47;0.60;;;;;;;9.01;100.00;99426.03;5037366;28;20487;-72
2023/01/11 04:53:27;;;;;;;1.30;0.77;;;;;;;9.02;100.00;99427.69;5030608;28;20478;-72
2023/01/11 04:55:53;;;;;;;1.03;0.70;;;;;;;8.86;100.00;99427.53;5040119;28;20501;-73
2023/01/11 04:58:20;;;;;;;0.90;0.70;;;;;;;9.04;100.00;99431.06;5022437;28;20459;-72
2023/01/11 05:00:47;;;;;;;0.77;0.50;;;;;;;9.00;100.00;99424.34;5023754;28;20482;-69
2023/01/11 05:03:13;;;;;;;2.30;0.60;;;;;;;9.07;100.00;99429.09;5032808;28;20453;-69
2023/01/11 05:05:40;;;;;;;0.57;0.57;;;;;;;9.12;100.00;99421.47;5032469;28;20552;-68
2023/01/11 05:08:08;;;;;;;2.97;0.50;;;;;;;9.01;100.00;99419.88;5022769;28;20478;-69
2023/01/11 05:10:34;;;;;;;1.00;0.60;;;;;;;9.19;100.00;99425.22;5029559;28;20498;-69
2023/01/11 05:13:01;;;;;;;1.33;0.67;;;;;;;9.09;100.00;99408.44;5028640;28;20560;-68
2023/01/11 05:15:27;;;;;;;0.60;0.60;;;;;;;9.08;100.00;99417.41;5039654;28;20839;-69
2023/01/11 05:17:54;;;;;;;0.40;0.40;;;;;;;8.92;100.00;99412.75;5036116;28;20466;-68
2023/01/11 05:20:21;;;;;;;0.93;0.50;;;;;;;8.99;100.00;99412.03;5030743;28;20990;-69
2023/01/11 05:22:48;;;;;;;0.47;0.47;;;;;;;8.98;100.00;99422.84;5022074;28;20505;-69
2023/01/11 05:25:16;;;;;;;0.80;0.80;;;;;;;8.95;100.00;99417.78;5020768;28;20443;-69
2023/01/11 05:27:42;;;;;;;1.63;0.90;;;;;;;9.05;100.00;99421.25;5019662;28;20483;-68
2023/01/11 05:30:10;;;;;;;1.73;0.60;;;;;;;9.02;100.00;99424.19;5021391;28;20464;-69
2023/01/11 05:32:37;;;;;;;0.60;0.50;;;;;;;9.06;100.00;99428.22;5023185;28;20463;-68
2023/01/11 05:35:04;;;;;;;1.93;0.70;;;;;;;9.08;100.00;99425.41;5021825;28;20482;-68
2023/01/11 05:37:30;;;;;;;0.70;0.70;;;;;;;9.02;100.00;99421.53;5024463;28;20978;-64
2023/01/11 05:39:57;;;;;;;0.83;0.83;;;;;;;9.06;100.00;99428.22;5025195;28;20459;-63
2023/01/11 05:42:25;;;;;;;1.03;0.93;;;;;;;9.12;100.00;99427.63;5023514;28;20483;-65
2023/01/11 05:47:36;;;;;;;1.00;0.80;;;;;;;9.03;100.00;99420.56;5020622;28;20493;-65
2023/01/11 05:50:02;;;;;;;1.23;1.13;;;;;;;9.05;100.00;99424.72;5034392;28;20522;-65
2023/01/11 05:52:29;;;;;;;1.20;1.10;;;;;;;8.96;100.00;99412.31;5029512;28;20486;-65
2023/01/11 05:54:57;;;;;;;1.77;1.20;;;;;;;9.07;100.00;99407.75;5041322;28;20474;-65
2023/01/11 05:57:25;;;;;;;1.13;1.07;;;;;;;9.03;100.00;99416.06;5040690;28;20470;-65
2023/01/11 05:59:52;;;;;;;1.83;0.90;;;;;;;9.03;100.00;99416.06;5028650;28;20840;-70
2023/01/11 06:02:18;;;;;;;0.80;0.80;;;;;;;9.05;100.00;99411.41;5022472;28;20541;-76
2023/01/11 06:04:45;;;;;;;1.43;1.10;;;;;;;9.01;100.00;99412.72;5020079;28;20451;-66
2023/01/11 06:07:11;;;;;;;1.47;1.37;;;;;;;9.14;100.00;99406.16;5018131;28;20507;-66
2023/01/11 06:09:38;;;;;;;1.60;1.50;;;;;;;9.04;100.00;99419.56;5020835;28;20474;-65
2023/01/11 06:12:05;;;;;;;3.23;1.40;;;;;;;9.15;100.00;99418.47;5030093;28;20518;-65
2023/01/11 06:14:33;;;;;;;2.13;1.60;;;;;;;9.12;100.00;99418.81;5036283;28;20498;-65
2023/01/11 06:17:01;;;;;;;3.07;1.00;;;;;;;9.14;100.00;99414.16;5018389;28;21075;-66
2023/01/11 06:19:28;;;;;;;1.40;1.20;;;;;;;9.13;100.00;99408.00;5021934;28;20483;-65
2023/01/11 06:21:54;;;;;;;1.20;1.10;;;;;;;9.20;100.00;99416.19;5018147;28;20482;-67
2023/01/11 06:24:21;;;;;;;1.20;1.10;;;;;;;9.26;100.00;99404.09;5020473;28;20477;-66
2023/01/11 06:26:48;;;;;;;2.73;1.77;;;;;;;9.16;100.00;99413.00;5022582;28;20989;-66
2023/01/11 06:29:14;;;;;;;2.23;2.03;;;;;;;9.20;100.00;99422.41;5022029;28;20479;-66
2023/01/11 06:31:42;;;;;;;3.03;2.30;;;;;;;9.21;100.00;99418.72;5019359;28;20502;-67
2023/01/11 06:34:09;;;;;;;1.73;1.63;;;;;;;9.25;100.00;99432.59;5022858;28;20996;-66
2023/01/11 06:36:35;;;;;;;1.50;1.40;;;;;;;9.17;100.00;99424.53;5019059;28;20479;-66
2023/01/11 06:39:02;;;;;;;1.93;1.30;;;;;;;9.22;100.00;99412.41;5020862;28;20470;-67
2023/01/11 06:41:29;;;;;;;2.27;1.33;;;;;;;9.29;100.00;99420.63;5018664;28;20537;-66
2023/01/11 06:43:55;;;;;;;1.10;1.00;;;;;;;9.32;100.00;99423.00;5019123;28;20466;-65
2023/01/11 06:46:22;;;;;;;1.20;1.10;;;;;;;9.25;100.00;99421.91;5020551;28;20513;-65
2023/01/11 06:48:50;;;;;;;1.33;1.20;;;;;;;9.17;100.00;99416.53;5027371;28;20429;-66
2023/01/11 06:51:17;;;;;;;1.80;1.37;;;;;;;9.21;100.00;99425.88;5016459;28;21110;-65
2023/01/11 06:53:45;;;;;;;1.27;1.10;;;;;;;9.29;100.00;99425.13;5030554;28;21131;-65
2023/01/11 06:56:14;;;;;;;1.17;1.10;;;;;;;9.30;100.00;99427.63;5028062;28;20846;-65
2023/01/11 06:58:40;;;;;;;2.70;1.30;;;;;;;9.19;100.00;99423.38;5037690;28;20477;-65
2023/01/11 07:01:07;;;;;;;1.20;1.10;;;;;;;9.27;100.00;99416.44;5042295;28;20513;-66
2023/01/11 07:03:34;;;;;;;1.67;1.50;;;;;;;9.36;100.00;99418.19;5043759;28;20430;-65
2023/01/11 07:06:03;;;;;;;1.60;1.50;;;;;;;9.35;100.00;99428.00;5041341;28;20509;-65
2023/01/11 07:08:29;;;;;;;2.77;2.00;;;;;;;9.33;100.00;99430.00;5043730;28;20460;-65
2023/01/11 07:10:56;;;;;;;3.47;1.40;;;;;;;9.34;100.00;99426.34;5042999;28;20497;-65
2023/01/11 07:13:23;;;;;;;2.10;1.80;;;;;;;9.42;100.00;99426.41;5042786;28;20561;-65
2023/01/11 07:15:52;;;;;;;2.57;2.03;;;;;;;9.36;100.00;99439.53;5031252;28;20512;-65
2023/01/11 07:18:19;;;;;;;2.00;1.80;;;;;;;9.30;100.00;99445.47;5029232;28;20917;-65
2023/01/11 07:20:46;;;;;;;5.00;2.00;;;;;;;9.33;100.00;99438.00;5040994;28;20527;-65
2023/01/11 07:23:14;;;;;;;2.80;2.47;;;;;;;9.42;100.00;99449.59;5043837;28;20450;-66
2023/01/11 07:25:41;;;;;;;4.07;2.87;;;;;;;9.36;100.00;99447.53;5028747;28;20533;-65
2023/01/11 07:28:08;;;;;;;6.40;2.83;;;;;;;9.45;100.00;99435.13;5029589;28;20474;-65
2023/01/11 07:30:37;;;;;;;2.83;2.53;;;;;;;9.35;100.00;99452.03;5042617;28;20765;-65
2023/01/11 07:33:05;;;;;;;3.40;2.70;;;;;;;9.53;100.00;99436.03;5023488;28;20463;-65
2023/01/11 07:35:32;;;;;;;3.40;2.77;;;;;;;9.52;100.00;99446.84;5033339;28;20484;-64
2023/01/11 07:37:58;;;;;;;3.63;3.33;;;;;;;9.47;100.00;99439.28;5041242;28;20438;-65
2023/01/11 07:40:27;;;;;;;3.20;2.57;;;;;;;9.46;100.00;99448.31;5031835;28;20776;-65
2023/01/11 07:43:13;;;;;;;4.10;2.40;;;;;;;9.53;100.00;99438.69;5003424;28;20468;-65
2023/01/11 07:45:41;;;;;;;6.13;3.20;;;;;;;9.56;100.00;99449.03;5027476;28;20476;-65
2023/01/11 07:48:09;;;;;;;2.93;2.63;;;;;;;9.61;100.00;99452.09;5042391;28;20479;-65
2023/01/11 07:50:38;;;;;;;4.43;3.60;;;;;;;9.54;100.00;99436.84;5041265;28;20476;-66
2023/01/11 07:53:04;;;;;;;3.63;3.23;;;;;;;9.63;100.00;99453.78;5026196;28;20464;-66
2023/01/11 07:55:32;;;;;;;4.90;3.13;;;;;;;9.58;100.00;99449.75;5032272;28;20491;-65
2023/01/11 07:57:59;;;;;;;3.97;2.63;;;;;;;9.69;100.00;99443.31;5041713;28;20461;-66
2023/01/11 08:00:26;;;;;;;2.93;2.63;;;;;;;9.58;100.00;99447.06;5042933;28;20862;-66
2023/01/11 08:02:53;;;;;;;5.50;2.60;;;;;;;9.74;100.00;99457.03;5034158;28;20490;-66
2023/01/11 08:05:19;;;;;;;2.97;2.40;;;;;;;9.78;100.00;99449.56;5019645;28;20451;-66
2023/01/11 08:07:46;;;;;;;3.70;3.30;;;;;;;9.62;100.00;99458.28;5023298;28;20454;-67
2023/01/11 08:10:13;;;;;;;4.30;2.27;;;;;;;9.73;100.00;99457.19;5041867;28;20462;-66
2023/01/11 08:15:28;;;;;;;4.27;3.60;;;;;;;9.79;100.00;99460.09;5032855;28;20474;-66
2023/01/11 08:17:54;;;;;;;3.20;2.90;;;;;;;9.71;100.00;99472.53;5026174;28;20458;-66
2023/01/11 08:20:21;;;;;;;4.27;3.10;;;;;;;9.72;100.00;99475.06;5040107;28;20932;-66
2023/01/11 08:22:48;;;;;;;4.10;3.10;;;;;;;9.68;100.00;99481.66;5041404;28;20446;-66
2023/01/11 08:25:15;;;;;;;3.83;3.43;;;;;;;9.68;100.00;99481.66;5041458;28;21098;-66
2023/01/11 08:27:43;;;;;;;4.03;2.90;;;;;;;9.71;100.00;99488.53;5041760;28;20528;-66
2023/01/11 08:30:11;;;;;;;4.90;2.93;;;;;;;9.74;100.00;99491.75;5025443;28;20451;-67
2023/01/11 08:32:37;;;;;;;4.47;3.37;;;;;;;9.79;100.00;99492.13;5028109;28;20974;-66
2023/01/11 08:35:05;;;;;;;5.00;2.37;;;;;;;9.85;100.00;99492.50;5041075;28;20587;-67
2023/01/11 08:37:31;;;;;;;3.20;2.90;;;;;;;9.84;100.00;99485.47;5041007;28;20486;-66
2023/01/11 08:39:58;;;;;;;3.20;2.90;;;;;;;9.85;100.00;99493.31;5031983;28;20447;-67
2023/01/11 08:42:25;;;;;;;3.00;2.70;;;;;;;9.78;100.00;99495.78;5022552;28;20479;-66
2023/01/11 08:44:54;;;;;;;3.00;2.70;;;;;;;9.86;100.00;99494.16;5041833;28;20473;-66
2023/01/11 08:47:21;;;;;;;5.70;2.87;;;;;;;9.98;100.00;99490.25;5031288;28;20487;-66
2023/01/11 08:49:47;;;;;;;3.13;2.83;;;;;;;9.97;100.00;99492.09;5022935;28;20449;-68
2023/01/11 08:52:14;;;;;;;2.97;2.67;;;;;;;9.92;100.00;99482.88;5041201;28;20471;-66
2023/01/11 08:54:41;;;;;;;2.27;2.13;;;;;;;10.04;100.00;99496.81;5029815;28;20545;-66
2023/01/11 08:57:08;;;;;;;3.43;3.10;;;;;;;10.02;100.00;99496.97;5020599;28;20483;-66
2023/01/11 08:59:35;;;;;;;3.23;3.00;;;;;;;10.02;100.00;99488.97;5022090;28;20811;-66
2023/01/11 09:02:05;;;;;;;3.97;3.60;;;;;;;9.99;100.00;99498.09;5031132;28;20486;-66
2023/01/11 09:04:32;;;;;;;5.47;4.97;;;;;;;9.92;100.00;99501.56;5021500;28;21085;-66
2023/01/11 09:06:59;;;;;;;6.03;5.53;;;;;;;9.93;100.00;99495.22;5037790;28;20481;-66
2023/01/11 09:09:26;;;;;;;6.77;6.10;;;;;;;10.03;100.00;99498.63;5031775;28;20451;-66
2023/01/11 09:11:57;;;;;;;6.87;6.27;;;;;;;9.90;100.00;99476.84;5020122;28;20467;-66
2023/01/11 09:14:25;;;;;;;6.90;6.27;;;;;;;10.01;100.00;99507.81;5021708;28;20475;-66
2023/01/11 09:16:52;;;;;;;5.90;5.40;;;;;;;10.04;100.00;99497.66;5021445;28;20502;-66
2023/01/11 09:19:20;;;;;;;5.87;5.37;;;;;;;10.22;100.00;99502.09;5022130;28;20466;-66
2023/01/11 09:21:47;;;;;;;6.17;5.67;;;;;;;10.19;100.00;99500.59;5019875;28;20511;-66
2023/01/11 09:24:14;;;;;;;6.87;6.10;;;;;;;10.16;100.00;99501.75;5020608;28;20861;-67
2023/01/11 09:26:42;;;;;;;6.87;6.27;;;;;;;10.22;100.00;99494.91;5035365;28;20498;-66
2023/01/11 09:29:09;;;;;;;7.17;6.40;;;;;;;10.22;100.00;99494.91;5033918;28;20543;-65
2023/01/11 09:31:35;;;;;;;8.50;7.60;;;;;;;10.23;100.00;99509.97;5020293;28;20504;-65
2023/01/11 09:34:03;;;;;;;8.13;7.33;;;;;;;10.20;100.00;99522.81;5030563;28;20534;-66
2023/01/11 09:36:34;;;;;;;8.47;7.47;;;;;;;10.35;100.00;99529.28;5022010;28;20514;-66
2023/01/11 09:39:05;;;;;;;8.37;7.57;;;;;;;10.25;100.00;99523.19;5040417;28;20444;-65
2023/01/11 09:41:43;;;;;;;9.63;8.67;;;;;;;10.28;100.00;99531.72;5022000;28;20476;-65
2023/01/11 09:44:15;;;;;;;10.63;9.53;;;;;;;10.39;100.00;99538.66;5030336;28;20459;-65
2023/01/11 09:46:44;;;;;;;15.13;10.80;;;;;;;10.29;100.00;99532.53;5025764;28;20890;-65
2023/01/11 09:49:17;;;;;;;13.93;10.60;;;;;;;10.40;100.00;99542.16;5021111;28;20424;-66
2023/01/11 09:51:46;;;;;;;11.73;10.53;;;;;;;10.26;100.00;99532.84;5020034;28;20499;-66
2023/01/11 09:54:18;;;;;;;11.77;10.53;;;;;;;10.44;100.00;99539.03;5027233;28;20509;-66
2023/01/11 09:56:50;;;;;;;12.00;10.60;;;;;;;10.32;100.00;99524.25;5039450;28;20489;-66
2023/01/11 09:59:23;;;;;;;12.93;8.93;;;;;;;10.45;100.00;99538.03;5040619;28;20439;-65
2023/01/11 10:01:55;;;;;;;11.17;10.03;;;;;;;10.52;100.00;99538.25;5039401;28;20984;-66
2023/01/11 10:04:41;;;;;;;11.80;10.37;;;;;;;10.41;100.00;99534.00;5025228;28;21037;-66
2023/01/11 10:07:21;;;;;;;10.70;9.03;;;;;;;10.40;100.00;99544.81;5019247;28;20474;-66
2023/01/11 10:09:57;;;;;;;10.53;9.10;;;;;;;10.45;100.00;99539.84;5021128;28;20463;-66
2023/01/11 10:12:31;;;;;;;11.33;9.37;;;;;;;10.34;100.00;99541.78;5020421;28;20487;-67
2023/01/11 10:15:06;;;;;;;10.60;8.90;;;;;;;10.40;100.00;99542.16;5020117;28;20467;-67
2023/01/11 10:17:41;;;;;;;10.40;8.93;;;;;;;10.47;100.00;99544.06;5020688;28;20471;-66
2023/01/11 10:20:19;;;;;;;11.20;9.43;;;;;;;10.49;100.00;99554.59;5023617;28;20463;-66
2023/01/11 10:22:48;;;;;;;10.97;9.03;;;;;;;10.61;100.00;99548.00;5039788;28;20466;-66
2023/01/11 10:25:23;;;;;;;10.47;8.20;;;;;;;10.40;100.00;99552.84;5021495;28;20768;-66
2023/01/11 10:27:55;;;;;;;9.63;7.80;;;;;;;10.54;100.00;99555.78;5034721;28;20455;-66
2023/01/11 10:33:21;;;;;;;11.70;9.27;;;;;;;10.51;100.00;99560.63;5036851;28;20459;-65
2023/01/11 10:36:29;;;;;;;11.47;8.83;;;;;;;10.53;100.00;99564.78;5035831;28;20615;-66
2023/01/11 10:39:14;;;;;;;13.40;8.90;;;;;;;10.53;100.00;99558.63;5023941;28;20483;-66
2023/01/11 10:41:51;;;;;;;9.80;8.00;;;;;;;10.38;100.00;99565.53;5024232;28;20504;-66
2023/01/11 10:44:23;;;;;;;9.67;7.40;;;;;;;10.48;100.00;99561.75;5025037;28;20459;-65
2023/01/11 10:46:51;;;;;;;9.53;8.37;;;;;;;10.42;100.00;99567.75;5025955;28;20609;-66
2023/01/11 10:49:28;;;;;;;15.17;8.70;;;;;;;10.50;100.00;99573.16;5044635;28;21054;-66
2023/01/11 10:51:59;;;;;;;11.73;9.43;;;;;;;10.48;100.00;99571.63;5041923;28;20477;-66
2023/01/11 10:54:31;;;;;;;19.10;9.87;;;;;;;10.39;100.00;99559.19;5037120;28;20541;-66
2023/01/11 10:57:10;;;;;;;14.27;9.70;;;;;;;10.48;100.00;99559.09;5023408;28;20530;-66
2023/01/11 10:59:51;;;;;;;18.20;10.43;;;;;;;10.57;100.00;99569.84;5024469;28;20871;-66
2023/01/11 11:02:30;;;;;;;15.53;10.57;;;;;;;10.41;100.00;99574.06;5034111;28;20482;-66
2023/01/11 11:05:07;;;;;;;21.07;11.40;;;;;;;10.57;100.00;99583.19;5024385;28;20595;-66
2023/01/11 11:07:38;;;;;;;14.00;10.70;;;;;;;10.58;100.00;99582.22;5022844;28;20965;-66
2023/01/11 11:10:12;;;;;;;13.37;9.43;;;;;;;10.58;100.00;99577.69;5024362;28;20457;-66
2023/01/11 11:12:41;;;;;;;15.60;10.87;;;;;;;10.55;100.00;99572.66;5023495;28;21078;-65
2023/01/11 11:15:13;;;;;;;15.80;10.10;;;;;;;10.53;100.00;99577.34;5022905;28;20568;-66
2023/01/11 11:17:40;;;;;;;12.00;9.23;;;;;;;10.41;100.00;99560.72;5024124;28;20459;-65
2023/01/11 11:20:13;;;;;;;13.00;10.00;;;;;;;10.59;100.00;99574.03;5021912;28;20787;-65
2023/01/11 11:22:40;;;;;;;16.13;9.67;;;;;;;10.71;100.00;99569.25;5029328;28;20471;-65
2023/01/11 11:25:15;;;;;;;18.80;9.80;;;;;;;10.58;100.00;99575.03;5043727;28;20431;-65
2023/01/11 11:27:45;;;;;;;16.03;9.77;;;;;;;10.64;100.00;99574.41;5027295;28;20463;-65
2023/01/11 11:30:13;;;;;;;17.03;8.80;;;;;;;10.44;100.00;99589.81;5022624;28;20472;-65
2023/01/11 11:32:44;;;;;;;11.50;8.90;;;;;;;10.73;100.00;99586.81;5024239;28;20452;-66
2023/01/11 11:35:32;;;;;;;16.80;8.43;;;;;;;10.46;100.00;99590.47;5021806;28;20491;-65
2023/01/11 11:38:00;;;;;;;17.53;10.90;;;;;;;10.53;100.00;99577.34;5023095;28;20456;-65
2023/01/11 11:40:34;;;;;;;17.53;9.53;;;;;;;10.48;100.00;99591.16;5020723;28;20878;-65
2023/01/11 11:43:14;;;;;;;12.87;9.17;;;;;;;10.40;100.00;99588.44;5021161;28;20966;-65
2023/01/11 11:45:51;;;;;;;22.63;9.40;;;;;;;10.38;100.00;99598.47;5019143;28;20539;-66
2023/01/11 11:48:17;;;;;;;18.70;10.03;;;;;;;10.33;100.00;99606.94;5023254;28;20526;-66
2023/01/11 11:50:45;;;;;;;17.33;10.53;;;;;;;10.44;100.00;99600.50;5025368;28;20478;-66
2023/01/11 11:53:22;;;;;;;15.93;11.30;;;;;;;10.34;100.00;99607.75;5024340;28;20470;-66
2023/01/11 11:55:51;;;;;;;16.80;8.73;;;;;;;10.30;100.00;99614.38;5024381;28;20479;-66
2023/01/11 11:58:20;;;;;;;21.73;8.97;;;;;;;10.22;100.00;99608.97;5022210;28;20531;-65
2023/01/11 12:00:48;;;;;;;15.03;10.33;;;;;;;10.52;100.00;99613.91;5020108;28;20499;-62
2023/01/11 12:03:18;;;;;;;18.93;8.17;;;;;;;10.58;100.00;99607.09;5024375;28;20490;-61
2023/01/11 12:05:52;;;;;;;19.77;8.33;;;;;;;10.58;100.00;99623.13;5018878;28;20475;-61
2023/01/11 12:08:20;;;;;;;16.83;8.63;;;;;;;10.58;100.00;99628.50;5020843;28;20502;-62
2023/01/11 12:10:53;;;;;;;15.07;7.10;;;;;;;10.48;100.00;99636.59;5022191;28;20545;-62